Time;durP1;ratioP1;P1;durP2;ratioP2;P2;SDS_P1;SDS_P2;PMS_P1;PMS_P2;Temp;Humidity;BMP_temperature;BMP_pressure;BME280_temperature;BME280_humidity;BME280_pressure;Samples;Min_cycle;Max_cycle;Signal;HPM_P1;HPM_P2
2022/10/13 00:01:27;;;;;;;8.17;4.63;;;13.20;65.70;;;15.80;50.38;101886.31;5033252;28;20671;-56
2022/10/13 00:03:56;;;;;;;7.77;4.47;;;13.10;65.90;;;15.76;50.68;101877.88;5034056;28;20260;-58
2022/10/13 00:06:25;;;;;;;6.23;4.27;;;13.10;66.10;;;15.78;50.55;101891.81;5035146;28;20194;-59
2022/10/13 00:08:55;;;;;;;7.93;4.23;;;13.10;66.50;;;15.80;50.62;101878.34;5032120;28;20191;-57
2022/10/13 00:11:26;;;;;;;8.63;4.80;;;13.10;66.50;;;15.79;50.78;101880.19;5014236;28;20222;-58
2022/10/13 00:13:57;;;;;;;5.73;4.50;;;13.10;66.50;;;15.78;50.38;101886.50;5014274;28;20262;-59
2022/10/13 00:16:26;;;;;;;7.57;4.13;;;13.10;66.60;;;15.76;50.54;101877.88;5014312;28;20648;-56
2022/10/13 00:18:55;;;;;;;5.27;4.23;;;13.10;66.40;;;15.73;50.57;101875.59;5014122;28;20242;-56
2022/10/13 00:21:26;;;;;;;4.70;4.10;;;13.00;66.60;;;15.76;50.81;101866.47;5013917;28;20199;-56
2022/10/13 00:23:55;;;;;;;6.13;4.73;;;13.00;66.70;;;15.79;51.26;101866.91;5013477;28;20273;-56
2022/10/13 00:26:24;;;;;;;6.27;4.17;;;13.00;67.30;;;15.80;50.65;101871.22;5015267;28;20226;-58
2022/10/13 00:28:53;;;;;;;4.97;4.50;;;13.00;66.90;;;15.82;50.64;101876.34;5013867;28;20214;-59
2022/10/13 00:31:23;;;;;;;5.93;4.70;;;13.00;66.70;;;15.78;50.51;101873.25;5013118;28;20191;-59
2022/10/13 00:33:51;;;;;;;6.07;4.23;;;13.00;66.70;;;15.70;50.61;101870.66;5030295;28;20226;-59
2022/10/13 00:36:22;;;;;;;7.90;4.37;;;13.00;66.90;;;15.64;51.15;101871.38;5033751;28;20647;-59
2022/10/13 00:38:50;;;;;;;9.27;4.40;;;13.00;66.70;;;15.60;50.82;101878.03;5033754;28;20194;-58
2022/10/13 00:41:18;;;;;;;7.80;5.43;;;12.90;66.80;;;15.55;50.93;101877.75;5033353;28;20195;-57
2022/10/13 00:43:56;;;;;;;8.03;4.63;;;12.90;67.00;;;15.48;51.15;101874.97;5031740;28;20273;-58
2022/10/13 00:46:27;;;;;;;7.80;5.50;;;12.80;67.10;;;15.43;51.43;101866.69;5034191;28;20198;-57
2022/10/13 00:48:57;;;;;;;8.93;4.27;;;12.80;67.30;;;15.39;51.49;101872.53;5033915;28;20202;-58
2022/10/13 00:51:32;;;;;;;7.13;4.37;;;12.70;67.40;;;15.37;51.82;101871.91;5033508;28;20203;-59
2022/10/13 00:54:04;;;;;;;9.07;4.20;;;12.70;67.50;;;15.38;51.62;101878.88;5013722;28;20745;-58
2022/10/13 00:56:34;;;;;;;6.60;4.77;;;12.70;67.70;;;15.40;51.83;101874.19;5014499;28;20637;-58
2022/10/13 00:59:03;;;;;;;7.83;4.43;;;12.70;67.90;;;15.39;51.55;101880.50;5015387;28;20221;-58
2022/10/13 01:01:31;;;;;;;5.00;4.50;;;12.70;68.00;;;15.37;51.60;101877.19;5015664;28;20257;-58
2022/10/13 01:03:59;;;;;;;8.07;4.07;;;12.70;68.00;;;15.35;51.77;101873.91;5017695;28;20222;-58
2022/10/13 01:06:28;;;;;;;6.67;4.37;;;12.70;67.90;;;15.32;52.10;101868.94;5014280;28;20245;-58
2022/10/13 01:08:55;;;;;;;9.40;4.60;;;12.70;68.10;;;15.31;51.95;101867.28;5033116;28;20190;-58
2022/10/13 01:11:53;;;;;;;6.07;4.70;;;12.60;68.00;;;15.23;52.09;101860.25;5033070;28;20186;-59
2022/10/13 01:14:33;;;;;;;6.20;4.73;;;12.60;68.10;;;15.24;51.90;101861.03;5013815;28;20253;-58
2022/10/13 01:17:15;;;;;;;5.73;4.73;;;12.60;68.20;;;15.26;51.88;101864.38;5014755;28;20195;-59
2022/10/13 01:20:21;;;;;;;8.17;4.70;;;12.60;68.20;;;15.26;51.79;101854.56;5013481;28;20195;-58
2022/10/13 01:23:17;;;;;;;11.97;5.00;;;12.60;68.40;;;15.27;52.09;101850.06;4998203;28;20222;-58
2022/10/13 01:26:17;;;;;;;7.33;4.20;;;12.60;68.50;;;15.30;52.00;101849.72;5033217;28;20190;-56
2022/10/13 01:29:10;;;;;;;6.20;4.53;;;12.60;68.60;;;15.36;51.76;101854.31;5033243;28;20206;-58
2022/10/13 01:31:48;;;;;;;7.47;4.80;;;12.60;68.60;;;15.41;51.88;101851.94;5032043;28;20221;-59
2022/10/13 01:34:22;;;;;;;6.87;4.00;;;12.60;68.60;;;15.41;51.72;101846.66;5016444;28;20641;-58
2022/10/13 01:37:02;;;;;;;5.57;4.20;;;12.60;68.40;;;15.41;51.54;101836.03;5027356;28;20238;-58
2022/10/13 01:39:39;;;;;;;7.10;4.60;;;12.60;68.40;;;15.43;51.76;101834.03;5036656;28;20651;-59
2022/10/13 01:42:15;;;;;;;9.97;4.83;;;12.70;68.70;;;15.43;51.63;101831.38;5035807;28;20240;-57
2022/10/13 01:44:50;;;;;;;6.57;4.97;;;12.70;68.50;;;15.43;51.79;101826.06;5036938;28;20260;-59
2022/10/13 01:47:22;;;;;;;6.83;4.83;;;12.70;68.40;;;15.45;51.85;101826.78;5036708;28;20189;-59
2022/10/13 01:49:52;;;;;;;6.87;5.07;;;12.70;68.50;;;15.45;51.77;101821.47;5035019;28;20244;-59
2022/10/13 01:52:25;;;;;;;11.23;4.87;;;12.70;68.50;;;15.41;51.82;101820.13;5029271;28;20219;-58
2022/10/13 01:54:53;;;;;;;8.17;4.20;;;12.70;68.50;;;15.40;51.83;101818.47;5016814;28;20269;-59
2022/10/13 01:57:33;;;;;;;5.53;4.60;;;12.60;68.40;;;15.35;51.95;101812.88;5017026;28;20230;-59
2022/10/13 02:00:06;;;;;;;6.57;4.80;;;12.60;68.50;;;15.35;52.09;101816.38;5025368;28;20202;-59
2022/10/13 02:02:45;;;;;;;6.70;4.40;;;12.60;68.60;;;15.31;51.80;101811.56;5036015;28;20266;-59
2022/10/13 02:05:25;;;;;;;6.93;5.43;;;12.60;68.70;;;15.29;52.25;101816.25;5036473;28;20201;-60
2022/10/13 02:08:03;;;;;;;14.07;4.97;;;12.60;68.80;;;15.27;52.09;101807.63;5036577;28;20202;-57
2022/10/13 02:10:39;;;;;;;11.10;5.37;;;12.60;68.90;;;15.23;52.27;101803.69;5024303;28;20587;-59
2022/10/13 02:13:12;;;;;;;10.97;5.60;;;12.50;68.90;;;15.23;52.25;101801.88;5016906;28;20226;-58
2022/10/13 02:15:47;;;;;;;6.37;5.10;;;12.50;69.00;;;15.24;51.97;101794.72;5016528;28;20269;-58
2022/10/13 02:18:22;;;;;;;9.10;5.77;;;12.50;69.00;;;15.24;52.56;101786.75;5016394;28;20641;-58
2022/10/13 02:20:51;;;;;;;9.97;5.40;;;12.50;69.20;;;15.25;52.63;101793.72;5030794;28;20593;-58
2022/10/13 02:23:19;;;;;;;8.70;5.87;;;12.50;69.30;;;15.22;52.50;101786.97;5040138;28;20750;-58
2022/10/13 02:25:49;;;;;;;9.87;5.13;;;12.50;69.40;;;15.20;52.74;101785.47;5036149;28;20256;-58
2022/10/13 02:28:17;;;;;;;10.57;5.97;;;12.50;69.50;;;15.17;52.56;101793.78;5034565;28;20187;-58
2022/10/13 02:30:46;;;;;;;8.93;5.40;;;12.50;69.60;;;15.14;53.03;101788.88;5021461;28;20694;-57
2022/10/13 02:33:14;;;;;;;7.47;4.87;;;12.40;69.70;;;15.12;52.85;101786.38;5015388;28;20296;-59
2022/10/13 02:35:43;;;;;;;8.50;5.47;;;12.40;69.80;;;15.12;53.13;101790.88;5023937;28;20198;-56
2022/10/13 02:38:10;;;;;;;9.07;5.97;;;12.40;70.00;;;15.09;53.16;101788.56;5035899;28;20206;-58
2022/10/13 02:40:38;;;;;;;8.40;5.60;;;12.40;70.10;;;15.07;53.40;101775.47;5034902;28;20198;-58
2022/10/13 02:43:08;;;;;;;11.67;6.03;;;12.40;70.10;;;15.04;53.46;101780.31;5035796;28;20256;-58
2022/10/13 02:45:35;;;;;;;8.47;5.87;;;12.40;70.20;;;15.02;53.65;101783.16;5026603;28;20199;-58
2022/10/13 02:48:03;;;;;;;9.70;6.30;;;12.40;70.40;;;14.99;53.94;101775.56;5016062;28;20310;-58
2022/10/13 02:50:30;;;;;;;8.37;5.60;;;12.40;70.50;;;14.99;53.57;101772.06;5026864;28;20221;-58
2022/10/13 02:52:59;;;;;;;8.37;6.10;;;12.30;70.30;;;15.01;53.95;101770.88;5035492;28;20225;-58
2022/10/13 02:55:26;;;;;;;10.17;5.93;;;12.30;70.50;;;15.01;53.78;101778.00;5035512;28;20221;-58
2022/10/13 02:57:54;;;;;;;9.03;5.77;;;12.30;70.60;;;14.98;53.87;101770.41;5035550;28;20198;-58
2022/10/13 03:00:22;;;;;;;11.50;6.27;;;12.30;70.60;;;14.94;54.04;101767.31;5034773;28;20229;-58
2022/10/13 03:02:49;;;;;;;7.40;6.43;;;12.30;70.80;;;14.93;54.02;101777.06;5031807;28;20758;-57
2022/10/13 03:05:16;;;;;;;11.93;6.80;;;12.30;70.80;;;14.92;53.93;101774.63;5015613;28;20195;-56
2022/10/13 03:07:44;;;;;;;9.47;5.77;;;12.30;70.90;;;14.93;54.14;101779.72;5025112;28;20190;-58
2022/10/13 03:10:12;;;;;;;11.00;6.43;;;12.30;71.00;;;14.93;53.94;101783.41;5034751;28;20186;-58
2022/10/13 03:12:40;;;;;;;10.80;6.70;;;12.30;71.00;;;14.93;54.08;101778.91;5034992;28;20222;-56
2022/10/13 03:15:08;;;;;;;11.13;6.60;;;12.30;71.00;;;14.91;53.87;101776.44;5035265;28;20194;-58
2022/10/13 03:17:35;;;;;;;10.00;6.60;;;12.30;71.00;;;14.90;53.97;101776.63;5034117;28;20289;-58
2022/10/13 03:20:04;;;;;;;10.60;6.87;;;12.30;71.10;;;14.90;54.15;101774.78;5028422;28;20229;-58
2022/10/13 03:22:32;;;;;;;10.20;6.63;;;12.30;71.30;;;14.89;54.30;101778.44;5031897;28;20222;-57
2022/10/13 03:24:59;;;;;;;10.33;6.57;;;12.30;71.40;;;14.88;54.34;101784.72;5034707;28;20260;-58
2022/10/13 03:27:28;;;;;;;10.83;8.03;;;12.30;71.40;;;14.84;54.38;101780.78;5034825;28;20257;-59
2022/10/13 03:29:56;;;;;;;10.87;6.77;;;12.30;71.70;;;14.82;54.58;101781.97;5028753;28;20254;-58
2022/10/13 03:32:23;;;;;;;10.33;7.33;;;12.20;71.60;;;14.79;54.55;101772.53;5012747;28;20219;-58
2022/10/13 03:34:51;;;;;;;12.70;7.17;;;12.20;71.60;;;14.78;54.82;101770.91;5015657;28;20199;-57
2022/10/13 03:37:18;;;;;;;15.40;7.27;;;12.20;71.80;;;14.78;54.65;101772.72;5034636;28;20195;-58
2022/10/13 03:39:45;;;;;;;11.07;7.20;;;12.20;71.70;;;14.79;54.71;101772.53;5031692;28;20244;-56
2022/10/13 03:42:12;;;;;;;8.87;6.60;;;12.20;71.90;;;14.83;54.72;101765.88;5033996;28;20211;-59
2022/10/13 03:44:41;;;;;;;9.30;6.07;;;12.20;72.10;;;14.89;54.50;101767.84;5035028;28;20201;-56
2022/10/13 03:47:08;;;;;;;9.93;6.57;;;12.20;71.90;;;14.95;54.50;101778.75;5034256;28;20663;-60
2022/10/13 03:49:37;;;;;;;8.37;6.73;;;12.20;72.10;;;15.00;54.26;101773.72;5031326;28;20286;-60
2022/10/13 03:52:05;;;;;;;11.60;7.37;;;12.20;72.00;;;15.03;54.43;101766.22;5033192;28;20244;-59
2022/10/13 03:54:32;;;;;;;10.07;7.10;;;12.30;72.10;;;15.03;54.49;101771.53;5032852;28;20218;-59
2022/10/13 03:57:00;;;;;;;10.33;7.30;;;12.30;72.10;;;15.04;54.63;101769.72;5019849;28;20200;-59
2022/10/13 03:59:28;;;;;;;10.43;6.80;;;12.30;72.10;;;15.06;54.31;101767.69;5015472;28;20191;-59
2022/10/13 04:02:04;;;;;;;11.13;6.93;;;12.30;71.90;;;15.10;54.43;101763.69;5033254;28;20198;-59
2022/10/13 04:04:31;;;;;;;7.57;6.20;;;12.30;72.20;;;15.19;54.40;101757.34;5034639;28;20305;-59
2022/10/13 04:06:58;;;;;;;8.53;6.27;;;12.40;72.40;;;15.30;53.99;101756.88;5034015;28;20655;-59
2022/10/13 04:09:26;;;;;;;11.07;7.23;;;12.40;72.20;;;15.36;53.81;101764.09;5033043;28;20191;-59
2022/10/13 04:11:54;;;;;;;7.90;6.53;;;12.50;71.90;;;15.36;53.77;101754.31;5033419;28;20244;-57
2022/10/13 04:14:21;;;;;;;10.50;6.60;;;12.50;71.70;;;15.39;53.87;101737.22;5020449;28;20625;-58
2022/10/13 04:16:48;;;;;;;11.97;6.90;;;12.50;71.80;;;15.43;53.54;101731.38;5014755;28;20203;-58
2022/10/13 04:19:17;;;;;;;8.83;6.10;;;12.60;71.70;;;15.49;53.68;101727.22;5031772;28;20198;-58
2022/10/13 04:21:44;;;;;;;12.83;7.57;;;12.60;71.70;;;15.49;53.37;101729.88;5013328;28;20195;-59
2022/10/13 04:24:12;;;;;;;12.77;7.70;;;12.70;71.50;;;15.50;53.58;101728.84;5013854;28;20538;-58
2022/10/13 04:26:40;;;;;;;12.03;7.60;;;12.70;71.70;;;15.49;53.77;101732.53;5014324;28;20632;-59
2022/10/13 04:29:12;;;;;;;11.70;7.73;;;12.70;71.70;;;15.46;53.65;101723.09;5016459;28;20544;-59
2022/10/13 04:31:42;;;;;;;8.83;7.30;;;12.70;71.60;;;15.48;53.50;101725.56;5023853;28;20194;-60
2022/10/13 04:34:10;;;;;;;9.47;7.80;;;12.60;71.60;;;15.45;53.94;101715.31;5013947;28;20257;-58
2022/10/13 04:36:39;;;;;;;12.03;7.07;;;12.70;72.60;;;15.48;53.83;101701.66;5029339;28;20615;-59
2022/10/13 04:39:06;;;;;;;12.17;7.97;;;12.60;72.00;;;15.53;54.02;101701.94;5032376;28;20206;-59
2022/10/13 04:41:34;;;;;;;12.23;8.37;;;12.70;72.30;;;15.56;53.58;101693.63;5032721;28;20579;-60
2022/10/13 04:44:01;;;;;;;11.87;8.07;;;12.70;72.30;;;15.59;53.65;101707.34;5032676;28;20242;-59
2022/10/13 04:46:29;;;;;;;11.57;8.00;;;12.70;72.20;;;15.62;53.92;101695.53;5033742;28;20658;-59
2022/10/13 04:48:57;;;;;;;18.13;9.87;;;12.80;73.00;;;15.63;53.96;101701.69;5029410;28;20737;-59
2022/10/13 04:51:25;;;;;;;13.67;8.83;;;12.80;72.30;;;15.58;53.76;101699.56;5032920;28;20578;-59
2022/10/13 04:54:04;;;;;;;12.30;9.27;;;12.80;72.20;;;15.48;54.42;101704.31;5032367;28;20244;-58
2022/10/13 04:56:31;;;;;;;13.07;9.73;;;12.70;72.30;;;15.42;54.65;101720.97;5033693;28;20632;-59
2022/10/13 04:58:59;;;;;;;13.40;9.47;;;12.70;72.60;;;15.35;55.13;101714.72;5031909;28;20352;-58
2022/10/13 05:01:26;;;;;;;13.20;9.00;;;12.70;73.10;;;15.24;55.34;101720.47;5035627;28;20258;-60
2022/10/13 05:03:56;;;;;;;12.73;9.53;;;12.60;73.50;;;15.20;55.69;101727.97;5036051;28;20268;-59
2022/10/13 05:06:27;;;;;;;16.27;10.47;;;12.60;73.70;;;15.22;55.75;101714.50;5029075;28;20215;-59
2022/10/13 05:08:55;;;;;;;13.30;9.30;;;12.60;73.90;;;15.27;55.63;101706.84;5030649;28;20201;-59
2022/10/13 05:11:26;;;;;;;13.83;10.90;;;12.60;74.00;;;15.32;55.88;101699.16;5032911;28;20248;-59
2022/10/13 05:13:54;;;;;;;14.97;9.83;;;12.60;74.20;;;15.35;55.46;101689.03;5032809;28;20226;-59
2022/10/13 05:16:23;;;;;;;13.43;8.97;;;12.60;74.10;;;15.43;55.35;101696.88;5032595;28;20544;-59
2022/10/13 05:18:54;;;;;;;14.60;10.33;;;12.60;74.10;;;15.50;55.26;101681.91;5032877;28;20253;-58
2022/10/13 05:21:24;;;;;;;12.70;9.37;;;12.70;74.10;;;15.59;55.21;101680.81;5032317;28;20194;-59
2022/10/13 05:23:54;;;;;;;17.37;10.70;;;12.70;74.10;;;15.67;55.14;101681.72;5027351;28;20261;-57
2022/10/13 05:26:27;;;;;;;12.47;9.20;;;12.80;74.20;;;15.71;55.28;101680.34;5013258;28;20640;-58
2022/10/13 05:28:55;;;;;;;16.50;10.40;;;12.90;74.90;;;15.77;54.99;101677.78;5013128;28;20195;-58
2022/10/13 05:31:25;;;;;;;16.53;10.40;;;12.90;74.10;;;15.80;54.79;101672.09;5031548;28;20195;-58
2022/10/13 05:33:53;;;;;;;16.40;11.00;;;12.90;73.90;;;15.84;55.18;101675.19;5032530;28;20210;-59
2022/10/13 05:36:24;;;;;;;21.97;12.03;;;12.90;73.90;;;15.81;54.98;101676.41;5032040;28;20312;-60
2022/10/13 05:38:55;;;;;;;15.13;11.53;;;13.00;74.10;;;15.80;54.97;101679.25;5032528;28;20190;-59
2022/10/13 05:41:25;;;;;;;15.83;11.83;;;13.00;74.00;;;15.73;55.37;101665.91;5031873;28;20710;-59
2022/10/13 05:43:57;;;;;;;17.87;12.90;;;13.00;74.40;;;15.73;54.88;101675.69;5032488;28;20206;-60
2022/10/13 05:46:25;;;;;;;20.00;12.83;;;13.00;74.40;;;15.68;55.83;101678.91;5032782;28;20199;-60
2022/10/13 05:48:53;;;;;;;20.10;13.43;;;12.90;74.80;;;15.66;55.96;101680.09;5032187;28;20602;-56
2022/10/13 05:51:28;;;;;;;19.53;12.57;;;12.90;74.80;;;15.66;56.12;101675.59;5026157;28;20198;-59
2022/10/13 05:54:04;;;;;;;13.60;11.40;;;12.90;74.70;;;15.70;55.80;101670.75;5032327;28;20234;-58
2022/10/13 05:56:40;;;;;;;19.20;13.90;;;13.00;74.90;;;15.73;55.69;101678.34;5031994;28;20565;-59
2022/10/13 05:59:12;;;;;;;18.27;13.27;;;12.90;75.70;;;15.71;56.14;101673.22;5018096;28;20195;-59
2022/10/13 06:01:42;;;;;;;17.23;13.07;;;12.90;75.20;;;15.74;56.19;101670.19;5015418;28;20272;-57
2022/10/13 06:04:18;;;;;;;23.27;13.90;;;12.90;75.10;;;15.69;56.39;101675.22;5032475;28;20248;-55
2022/10/13 06:06:48;;;;;;;19.73;13.70;;;12.90;75.60;;;15.72;56.45;101669.53;5032242;28;20201;-59
2022/10/13 06:09:16;;;;;;;21.73;13.37;;;13.00;75.60;;;15.73;56.57;101678.34;5028449;28;20195;-59
2022/10/13 06:11:45;;;;;;;20.73;14.10;;;13.00;75.90;;;15.73;56.48;101671.19;5032168;28;20203;-59
2022/10/13 06:14:12;;;;;;;20.90;14.10;;;13.00;76.10;;;15.73;56.59;101665.91;5032673;28;20226;-59
2022/10/13 06:16:41;;;;;;;21.23;15.27;;;13.00;76.10;;;15.76;56.50;101670.81;5030856;28;20194;-58
2022/10/13 06:19:08;;;;;;;24.53;15.60;;;13.00;76.10;;;15.76;56.66;101660.19;5031547;28;20186;-59
2022/10/13 06:21:35;;;;;;;21.30;15.07;;;13.00;76.20;;;15.78;56.71;101658.19;5015171;28;20195;-57
2022/10/13 06:24:03;;;;;;;28.43;15.20;;;13.00;76.30;;;15.78;56.91;101658.19;5017260;28;20285;-59
2022/10/13 06:26:31;;;;;;;23.27;14.33;;;13.00;76.40;;;15.80;56.75;101661.50;5019160;28;20195;-59
2022/10/13 06:28:59;;;;;;;21.40;13.83;;;13.00;76.50;;;15.78;56.75;101652.91;5017572;28;20203;-58
2022/10/13 06:31:27;;;;;;;22.43;14.90;;;13.10;76.70;;;15.79;57.07;101657.19;5036518;28;20202;-58
2022/10/13 06:33:54;;;;;;;21.93;14.83;;;13.10;76.80;;;15.79;57.26;101659.84;5035738;28;20312;-57
2022/10/13 06:36:21;;;;;;;21.40;14.90;;;13.10;76.90;;;15.81;56.91;101647.19;5035857;28;20195;-57
2022/10/13 06:38:49;;;;;;;26.20;15.57;;;13.10;76.90;;;15.77;57.31;101645.94;5035594;28;20705;-59
2022/10/13 06:41:17;;;;;;;22.23;14.57;;;13.10;77.00;;;15.80;57.38;101648.22;5034395;28;20194;-59
2022/10/13 06:43:44;;;;;;;19.63;14.90;;;13.10;77.00;;;15.82;57.44;101645.38;5024883;28;20214;-58
2022/10/13 06:46:13;;;;;;;23.97;15.70;;;13.10;77.10;;;15.85;57.63;101658.28;5014048;28;20261;-59
2022/10/13 06:48:40;;;;;;;17.60;13.43;;;13.10;77.00;;;15.94;57.52;101651.84;5015632;28;20298;-57
2022/10/13 06:51:10;;;;;;;25.47;15.47;;;13.10;77.00;;;16.01;56.95;101663.34;5031270;28;20680;-59
2022/10/13 06:53:39;;;;;;;20.93;15.07;;;13.20;77.00;;;16.04;56.97;101668.31;5035494;28;20555;-57
2022/10/13 06:56:07;;;;;;;18.10;14.33;;;13.20;77.00;;;16.07;56.84;101657.28;5035203;28;20217;-59
2022/10/13 06:58:36;;;;;;;17.20;14.97;;;13.30;76.90;;;16.07;56.93;101663.44;5035173;28;20198;-59
2022/10/13 07:01:05;;;;;;;21.20;13.43;;;13.30;76.90;;;16.06;57.03;101655.66;5023302;28;20195;-60
2022/10/13 07:03:35;;;;;;;17.70;14.17;;;13.30;76.80;;;16.10;56.92;101648.94;5033891;28;20214;-58
2022/10/13 07:06:04;;;;;;;17.00;13.17;;;13.30;76.70;;;16.17;56.65;101639.22;5029401;28;20195;-59
2022/10/13 07:08:33;;;;;;;19.50;14.53;;;13.30;76.80;;;16.26;56.51;101633.59;5031049;28;20202;-59
2022/10/13 07:11:06;;;;;;;19.53;14.37;;;13.40;77.00;;;16.34;56.30;101631.81;5032681;28;20205;-58
2022/10/13 07:13:42;;;;;;;22.03;15.23;;;13.50;76.90;;;16.42;56.23;101647.66;5034946;28;20674;-58
2022/10/13 07:16:14;;;;;;;23.03;16.03;;;13.50;76.70;;;16.40;56.33;101661.13;5034709;28;20294;-59
2022/10/13 07:18:43;;;;;;;19.20;15.03;;;13.50;76.50;;;16.30;56.53;101651.81;5033752;28;20214;-56
2022/10/13 07:21:10;;;;;;;22.30;16.17;;;13.50;76.50;;;16.23;56.99;101655.25;5017981;28;20611;-59
2022/10/13 07:23:37;;;;;;;22.43;15.80;;;13.50;76.60;;;16.19;57.13;101656.63;5015253;28;20280;-60
2022/10/13 07:26:07;;;;;;;17.90;15.00;;;13.50;76.70;;;16.19;57.04;101653.13;5015219;28;20192;-58
2022/10/13 07:28:34;;;;;;;15.07;13.47;;;13.50;76.80;;;16.32;56.91;101645.31;5014495;28;20214;-57
2022/10/13 07:31:09;;;;;;;20.30;15.17;;;13.60;76.90;;;16.41;56.72;101648.66;5013150;28;20278;-58
2022/10/13 07:33:38;;;;;;;22.43;15.30;;;13.60;77.10;;;16.48;56.64;101652.19;5013968;28;20233;-59
2022/10/13 07:36:08;;;;;;;23.93;17.17;;;13.60;76.90;;;16.56;56.51;101657.41;5016653;28;20214;-58
2022/10/13 07:38:37;;;;;;;18.57;15.17;;;13.70;76.90;;;16.60;56.60;101664.00;5016932;28;20198;-61
2022/10/13 07:41:07;;;;;;;22.17;14.80;;;13.70;76.80;;;16.61;55.95;101657.69;5033125;28;20194;-58
2022/10/13 07:43:34;;;;;;;20.10;15.47;;;13.80;76.70;;;16.60;56.51;101653.34;5034585;28;20219;-60
2022/10/13 07:46:03;;;;;;;21.10;16.33;;;13.80;76.90;;;16.58;56.48;101645.59;5034690;28;20215;-57
2022/10/13 07:48:31;;;;;;;18.03;14.13;;;13.80;77.60;;;16.65;56.42;101656.25;5034783;28;20288;-59
2022/10/13 07:51:02;;;;;;;20.20;15.77;;;13.80;76.70;;;16.70;56.20;101662.66;5031045;28;20264;-57
2022/10/13 07:53:31;;;;;;;21.33;15.07;;;13.90;76.80;;;16.73;56.58;101661.47;5026950;28;20215;-55
2022/10/13 07:56:00;;;;;;;20.30;15.00;;;13.90;76.80;;;16.73;56.41;101658.81;5033648;28;20214;-57
2022/10/13 07:58:27;;;;;;;22.83;15.77;;;13.90;76.80;;;16.73;56.84;101662.28;5014636;28;20233;-61
2022/10/13 08:00:55;;;;;;;20.47;15.60;;;13.90;76.90;;;16.77;56.51;101649.41;5019151;28;20203;-58
2022/10/13 08:03:24;;;;;;;19.10;14.60;;;14.00;77.10;;;16.84;56.64;101652.94;5031269;28;20265;-58
2022/10/13 08:05:52;;;;;;;21.83;16.17;;;14.00;77.00;;;16.91;56.59;101645.84;5032365;28;20194;-59
2022/10/13 08:08:23;;;;;;;21.70;15.20;;;14.10;77.10;;;17.01;56.56;101654.31;5033641;28;20199;-60
2022/10/13 08:10:54;;;;;;;20.30;14.67;;;14.10;77.00;;;17.12;56.07;101647.63;5029150;28;20195;-56
2022/10/13 08:13:21;;;;;;;19.90;16.17;;;14.20;77.10;;;17.20;56.00;101655.47;5026583;28;20211;-59
2022/10/13 08:15:49;;;;;;;20.30;15.57;;;14.30;77.00;;;17.19;56.00;101654.63;5033908;28;20280;-61
2022/10/13 08:18:16;;;;;;;22.77;15.87;;;14.30;76.70;;;17.17;56.08;101655.84;5030896;28;20210;-59
2022/10/13 08:20:44;;;;;;;20.20;15.13;;;14.40;76.50;;;17.23;55.94;101649.75;5032013;28;20198;-59
2022/10/13 08:23:12;;;;;;;22.93;14.20;;;14.40;76.50;;;17.30;56.01;101656.75;5033308;28;20210;-59
2022/10/13 08:25:42;;;;;;;16.60;13.57;;;14.40;76.50;;;17.34;56.12;101652.69;5032311;28;20240;-58
2022/10/13 08:28:18;;;;;;;20.87;14.63;;;14.50;76.70;;;17.42;55.85;101647.19;5031706;28;20713;-59
2022/10/13 08:30:46;;;;;;;19.63;13.87;;;14.60;76.70;;;17.55;55.77;101643.81;5031953;28;20214;-60
2022/10/13 08:33:14;;;;;;;18.83;14.30;;;14.70;76.60;;;17.72;55.49;101649.63;5026819;28;20219;-61
2022/10/13 08:35:42;;;;;;;16.13;13.90;;;14.80;76.40;;;17.98;55.17;101633.72;5026183;28;20276;-58
2022/10/13 08:38:09;;;;;;;19.90;13.43;;;14.90;76.20;;;18.26;54.62;101626.41;5028704;28;20202;-58
2022/10/13 08:40:38;;;;;;;14.43;12.93;;;15.00;76.20;;;18.54;53.54;101629.75;5032359;28;20240;-59
2022/10/13 08:43:07;;;;;;;17.63;13.97;;;15.20;75.30;;;18.75;53.34;101637.56;5025538;28;20675;-59
2022/10/13 08:45:36;;;;;;;22.80;14.63;;;15.50;74.80;;;18.76;52.39;101633.84;5025568;28;20260;-60
2022/10/13 08:48:15;;;;;;;22.03;14.13;;;15.60;73.50;;;18.72;52.37;101629.97;5020900;28;20533;-59
2022/10/13 08:50:46;;;;;;;17.00;12.90;;;15.70;72.90;;;18.79;52.63;101635.28;5022789;28;20194;-58
2022/10/13 08:53:24;;;;;;;20.77;14.37;;;15.80;73.00;;;18.85;52.40;101647.81;5020484;28;20226;-59
2022/10/13 08:55:57;;;;;;;18.70;13.67;;;15.90;73.60;;;18.75;52.86;101637.56;5018178;28;20210;-59
2022/10/13 08:58:29;;;;;;;17.03;13.40;;;15.90;72.50;;;18.82;52.59;101638.38;5031686;28;20202;-59
2022/10/13 09:01:11;;;;;;;16.67;13.97;;;15.90;72.60;;;18.81;52.45;101626.06;5028783;28;20206;-59
2022/10/13 09:03:49;;;;;;;18.43;14.13;;;16.00;72.60;;;18.86;52.71;101612.91;5023290;28;20222;-59
2022/10/13 09:06:27;;;;;;;20.00;13.50;;;16.10;72.60;;;18.92;52.51;101604.06;5030897;28;20758;-58
2022/10/13 09:08:58;;;;;;;18.83;13.53;;;16.10;72.40;;;18.99;52.41;101611.25;5032916;28;20229;-59
2022/10/13 09:11:29;;;;;;;16.50;12.90;;;16.10;72.20;;;19.10;52.32;101598.09;5016715;28;20245;-60
2022/10/13 09:13:59;;;;;;;22.50;15.20;;;16.20;72.30;;;19.16;51.89;101602.59;5013112;28;20207;-60
2022/10/13 09:16:33;;;;;;;16.33;13.20;;;16.20;71.90;;;19.13;51.85;101594.19;5014545;28;20215;-61
2022/10/13 09:19:22;;;;;;;19.47;14.17;;;16.30;71.80;;;19.04;52.09;101598.13;5024802;28;20198;-59
2022/10/13 09:21:53;;;;;;;20.03;14.33;;;16.30;71.70;;;19.05;52.06;101600.56;5021059;28;20641;-59
2022/10/13 09:24:23;;;;;;;19.70;14.10;;;16.30;71.60;;;19.01;52.41;101606.53;5014870;28;20318;-61
2022/10/13 09:27:04;;;;;;;17.93;13.43;;;16.30;71.60;;;19.06;52.34;101601.41;5011867;28;20604;-58
2022/10/13 09:29:32;;;;;;;18.50;14.70;;;16.30;71.60;;;19.13;52.03;101602.19;5013846;28;20199;-58
2022/10/13 09:32:19;;;;;;;17.07;14.97;;;16.40;71.60;;;19.14;52.27;101603.81;5016563;28;20880;-57
2022/10/13 09:34:49;;;;;;;15.70;12.63;;;16.40;71.60;;;19.28;52.36;101606.25;5023509;28;20302;-58
2022/10/13 09:37:21;;;;;;;15.70;12.53;;;16.50;71.60;;;19.61;51.94;101611.53;5025663;28;20190;-60
2022/10/13 09:40:01;;;;;;;19.87;13.73;;;16.60;72.00;;;19.94;50.26;101612.19;5021042;28;20188;-58
2022/10/13 09:42:30;;;;;;;17.20;14.10;;;16.80;71.30;;;20.40;49.86;101605.69;5017377;28;20269;-59
2022/10/13 09:45:10;;;;;;;16.53;12.70;;;17.00;71.10;;;20.94;48.55;101608.53;5012751;28;20274;-57
2022/10/13 09:47:47;;;;;;;15.87;12.27;;;17.30;70.20;;;21.46;48.32;101604.50;5020256;28;20195;-57
2022/10/13 09:50:18;;;;;;;17.53;13.60;;;17.70;69.80;;;21.68;46.58;101615.56;5022416;28;20194;-59
2022/10/13 09:52:47;;;;;;;18.80;13.70;;;18.00;67.90;;;21.43;46.58;101603.06;5015652;28;20211;-60
2022/10/13 09:55:31;;;;;;;17.47;13.40;;;18.10;66.50;;;21.05;47.67;101604.34;5021240;28;20314;-58
2022/10/13 09:58:09;;;;;;;16.07;13.43;;;18.10;66.20;;;20.95;48.18;101604.81;5015392;28;20278;-60
2022/10/13 10:00:38;;;;;;;15.50;13.87;;;18.10;66.50;;;21.34;47.42;101608.97;5027767;28;20244;-59
2022/10/13 10:03:18;;;;;;;16.43;13.30;;;18.20;67.10;;;21.80;46.30;101603.03;5036931;28;20210;-58
2022/10/13 10:05:50;;;;;;;15.20;11.83;;;18.30;66.80;;;22.22;45.72;101597.50;5037562;28;20216;-59
2022/10/13 10:08:28;;;;;;;15.10;11.73;;;18.50;66.50;;;22.53;45.29;101587.50;5035233;28;20199;-58
2022/10/13 10:11:12;;;;;;;16.03;12.10;;;18.70;66.20;;;22.80;45.07;101588.69;5035640;28;20194;-60
2022/10/13 10:13:39;;;;;;;16.17;13.10;;;18.90;65.90;;;23.14;44.19;101574.41;5031204;28;20206;-59
2022/10/13 10:16:17;;;;;;;12.20;10.90;;;19.00;65.30;;;23.76;43.63;101579.97;5015998;28;20218;-60
2022/10/13 10:18:52;;;;;;;15.80;12.90;;;19.30;65.20;;;24.40;40.97;101581.38;5015757;28;20517;-60
2022/10/13 10:21:36;;;;;;;13.67;12.33;;;19.50;63.60;;;24.69;40.94;101578.34;5015979;28;20597;-59